createdAt,value
2019-05-22T00:00:46.756Z,0
2019-05-22T00:02:00.870Z,0
2019-05-22T00:03:15.030Z,0
2019-05-22T00:04:29.242Z,0
2019-05-22T00:05:43.357Z,0
2019-05-22T00:06:57.530Z,0
2019-05-22T00:08:11.862Z,0
2019-05-22T00:09:25.861Z,0
2019-05-22T00:10:40.024Z,0
2019-05-22T00:11:54.202Z,0
2019-05-22T00:13:08.441Z,0
2019-05-22T00:14:22.625Z,0
2019-05-22T00:15:36.680Z,0
2019-05-22T00:16:50.845Z,0
2019-05-22T00:18:05.003Z,0
2019-05-22T00:19:19.160Z,0
2019-05-22T00:20:33.347Z,0
2019-05-22T00:21:47.497Z,0
2019-05-22T00:23:01.668Z,0
2019-05-22T00:24:15.839Z,0
2019-05-22T00:25:30.094Z,0
2019-05-22T00:26:44.193Z,0
2019-05-22T00:27:58.341Z,0
2019-05-22T00:29:12.501Z,0
2019-05-22T00:30:26.659Z,0
2019-05-22T00:31:41.339Z,0
2019-05-22T00:32:55.087Z,0
2019-05-22T00:34:09.174Z,0
2019-05-22T00:35:23.352Z,0
2019-05-22T00:36:37.562Z,0
2019-05-22T00:37:51.683Z,0
2019-05-22T00:39:05.840Z,0
2019-05-22T00:40:20.002Z,0
2019-05-22T00:41:34.171Z,0
2019-05-22T00:44:02.597Z,0
2019-05-22T00:46:30.917Z,0
2019-05-22T00:47:45.018Z,0
2019-05-22T00:48:59.175Z,0
2019-05-22T00:51:27.519Z,0
2019-05-22T00:52:41.688Z,0
2019-05-22T00:53:55.848Z,0
2019-05-22T00:55:10.905Z,0
2019-05-22T00:56:24.330Z,0
2019-05-22T00:57:38.381Z,0
2019-05-22T00:58:52.566Z,0
2019-05-22T01:00:06.798Z,0
2019-05-22T01:02:36.350Z,0
2019-05-22T01:03:49.233Z,0
2019-05-22T01:05:03.409Z,0
2019-05-22T01:06:17.580Z,0
2019-05-22T01:08:45.936Z,0
2019-05-22T01:10:00.134Z,0
2019-05-22T01:11:14.286Z,0
2019-05-22T01:12:28.553Z,0
2019-05-22T01:13:42.651Z,0
2019-05-22T01:14:56.962Z,0
2019-05-22T01:16:11.019Z,0
2019-05-22T01:17:25.279Z,0
2019-05-22T01:18:39.373Z,0
2019-05-22T01:19:53.508Z,0
2019-05-22T01:21:07.812Z,0
2019-05-22T01:22:21.849Z,0
2019-05-22T01:23:36.001Z,0
2019-05-22T01:24:50.180Z,0
2019-05-22T01:26:06.294Z,0
2019-05-22T01:27:18.613Z,0
2019-05-22T01:28:32.712Z,0
2019-05-22T01:29:46.870Z,0
2019-05-22T01:31:01.035Z,0
2019-05-22T01:32:15.224Z,0
2019-05-22T01:33:29.377Z,0
2019-05-22T01:34:43.567Z,0
2019-05-22T01:35:57.700Z,0
2019-05-22T01:37:11.881Z,0
2019-05-22T01:39:40.334Z,0
2019-05-22T01:40:54.397Z,0
2019-05-22T01:42:08.662Z,0
2019-05-22T01:43:22.753Z,0
2019-05-22T01:44:36.920Z,0
2019-05-22T01:45:51.082Z,0
2019-05-22T01:47:05.810Z,0
2019-05-22T01:48:19.426Z,0
2019-05-22T01:49:33.654Z,0
2019-05-22T01:50:47.757Z,0
2019-05-22T01:52:01.924Z,0
2019-05-22T01:53:16.100Z,0
2019-05-22T01:54:30.410Z,0
2019-05-22T01:55:44.448Z,0
2019-05-22T01:56:58.618Z,0
2019-05-22T01:58:12.893Z,0
2019-05-22T02:00:41.320Z,0
2019-05-22T02:01:55.278Z,0
2019-05-22T02:03:09.445Z,0
2019-05-22T02:05:37.887Z,0
2019-05-22T02:06:52.032Z,0
2019-05-22T02:08:06.122Z,0
2019-05-22T02:09:20.291Z,0
2019-05-22T02:10:36.228Z,0
2019-05-22T02:11:49.372Z,0
2019-05-22T02:13:02.894Z,0
2019-05-22T02:14:16.995Z,0
2019-05-22T02:15:31.136Z,0
2019-05-22T02:16:45.407Z,0
2019-05-22T02:17:59.464Z,0
2019-05-22T02:19:13.719Z,0
2019-05-22T02:20:27.796Z,0
2019-05-22T02:21:41.971Z,0
2019-05-22T02:22:56.121Z,0
2019-05-22T02:24:10.296Z,0
2019-05-22T02:25:24.460Z,0
2019-05-22T02:26:38.715Z,0
2019-05-22T02:27:52.845Z,0
2019-05-22T02:29:06.975Z,0
2019-05-22T02:30:21.145Z,0
2019-05-22T02:31:35.309Z,0
2019-05-22T02:32:49.480Z,0
2019-05-22T02:34:03.657Z,0
2019-05-22T02:35:17.806Z,0
2019-05-22T02:37:46.141Z,0
2019-05-22T02:39:01.845Z,0
2019-05-22T02:40:14.463Z,0
2019-05-22T02:41:28.734Z,0
2019-05-22T02:42:43.003Z,0
2019-05-22T02:43:56.946Z,0
2019-05-22T02:45:11.115Z,0
2019-05-22T02:46:25.285Z,0
2019-05-22T02:47:39.470Z,0
2019-05-22T02:48:53.715Z,0
2019-05-22T02:50:07.877Z,0
2019-05-22T02:52:36.124Z,0
2019-05-22T02:53:50.295Z,4
2019-05-22T02:55:04.535Z,4
2019-05-22T02:56:18.696Z,0
2019-05-22T02:57:32.796Z,0
2019-05-22T03:00:01.166Z,4
2019-05-22T03:01:15.312Z,4
2019-05-22T03:02:29.507Z,4
2019-05-22T03:03:43.674Z,8
2019-05-22T03:04:57.824Z,4
2019-05-22T03:06:12.114Z,8
2019-05-22T03:07:26.172Z,8
2019-05-22T03:08:40.320Z,8
2019-05-22T03:09:54.499Z,12
2019-05-22T03:11:08.659Z,12
2019-05-22T03:12:22.843Z,12
2019-05-22T03:13:36.983Z,12
2019-05-22T03:14:51.241Z,20
2019-05-22T03:16:06.502Z,24
2019-05-22T03:17:19.492Z,32
2019-05-22T03:18:33.675Z,36
2019-05-22T03:19:47.832Z,44
2019-05-22T03:21:05.699Z,48
2019-05-22T03:22:16.284Z,56
2019-05-22T03:23:30.348Z,64
2019-05-22T03:24:44.595Z,76
2019-05-22T03:25:58.693Z,88
2019-05-22T03:27:12.855Z,104
2019-05-22T03:28:27.017Z,128
2019-05-22T03:29:41.196Z,120
2019-05-22T03:30:55.340Z,116
2019-05-22T03:32:09.600Z,132
2019-05-22T03:33:23.704Z,152
2019-05-22T03:34:37.879Z,164
2019-05-22T03:35:52.141Z,184
2019-05-22T03:37:06.140Z,220
2019-05-22T03:38:20.299Z,252
2019-05-22T03:39:34.447Z,288
2019-05-22T03:40:48.613Z,296
2019-05-22T03:42:02.761Z,336
2019-05-22T03:43:16.948Z,396
2019-05-22T03:44:31.089Z,416
2019-05-22T03:45:45.375Z,452
2019-05-22T03:46:59.430Z,508
2019-05-22T03:48:13.602Z,540
2019-05-22T03:49:27.739Z,568
2019-05-22T03:51:56.082Z,564
2019-05-22T03:53:10.230Z,668
2019-05-22T03:55:38.753Z,836
2019-05-22T03:56:52.908Z,828
2019-05-22T03:58:06.876Z,812
2019-05-22T03:59:21.049Z,756
2019-05-22T04:00:35.210Z,756
2019-05-22T04:01:49.444Z,764
2019-05-22T04:03:03.536Z,844
2019-05-22T04:04:17.781Z,808
2019-05-22T04:05:31.873Z,812
2019-05-22T04:06:46.041Z,788
2019-05-22T04:08:00.196Z,808
2019-05-22T04:09:14.381Z,840
2019-05-22T04:10:28.637Z,840
2019-05-22T04:11:42.741Z,864
2019-05-22T04:12:56.862Z,884
2019-05-22T04:14:11.047Z,916
2019-05-22T04:15:25.209Z,912
2019-05-22T04:16:39.488Z,800
2019-05-22T04:17:53.545Z,704
2019-05-22T04:19:07.947Z,688
2019-05-22T04:20:21.954Z,676
2019-05-22T04:21:36.134Z,676
2019-05-22T04:22:50.216Z,652
2019-05-22T04:24:04.379Z,696
2019-05-22T04:25:18.710Z,656
2019-05-22T04:26:32.705Z,704
2019-05-22T04:27:46.887Z,960
2019-05-22T04:29:01.046Z,1136
2019-05-22T04:30:15.219Z,1120
2019-05-22T04:31:29.384Z,1344
2019-05-22T04:32:43.672Z,1260
2019-05-22T04:33:57.696Z,1236
2019-05-22T04:35:11.969Z,1188
2019-05-22T04:36:26.046Z,1152
2019-05-22T04:37:40.304Z,1240
2019-05-22T04:38:55.381Z,1448
2019-05-22T04:41:22.709Z,1908
2019-05-22T04:42:36.856Z,2184
2019-05-22T04:43:51.009Z,2312
2019-05-22T04:45:05.216Z,2160
2019-05-22T04:46:19.349Z,2112
2019-05-22T04:47:33.560Z,2008
2019-05-22T04:48:47.794Z,1840
2019-05-22T04:50:01.945Z,1748
2019-05-22T04:51:16.030Z,2004
2019-05-22T04:52:30.208Z,2056
2019-05-22T04:53:44.454Z,1936
2019-05-22T04:55:01.536Z,1820
2019-05-22T04:57:26.910Z,1868
2019-05-22T04:58:41.135Z,1772
2019-05-22T04:59:55.312Z,1644
2019-05-22T05:01:09.385Z,1716
2019-05-22T05:02:23.551Z,1744
2019-05-22T05:03:37.762Z,1560
2019-05-22T05:04:51.881Z,1644
2019-05-22T05:06:06.054Z,1640
2019-05-22T05:07:20.202Z,1560
2019-05-22T05:09:48.614Z,1608
2019-05-22T05:11:03.381Z,1632
2019-05-22T05:12:16.858Z,1612
2019-05-22T05:13:31.040Z,1528
2019-05-22T05:14:45.190Z,1364
2019-05-22T05:15:59.340Z,1384
2019-05-22T05:17:13.511Z,1432
2019-05-22T05:18:27.691Z,1700
2019-05-22T05:20:55.986Z,2048
2019-05-22T05:22:10.144Z,2004
2019-05-22T05:23:24.344Z,2204
2019-05-22T05:24:38.618Z,2332
2019-05-22T05:25:52.682Z,2544
2019-05-22T05:27:06.801Z,2832
2019-05-22T05:28:20.960Z,3140
2019-05-22T05:29:35.206Z,3320
2019-05-22T05:30:49.270Z,3336
2019-05-22T05:32:03.434Z,3400
2019-05-22T05:33:17.610Z,3192
2019-05-22T05:34:31.757Z,2980
2019-05-22T05:37:00.093Z,3128
2019-05-22T05:38:14.235Z,3264
2019-05-22T05:40:42.572Z,3392
2019-05-22T05:41:56.801Z,3452
2019-05-22T05:43:10.898Z,3236
2019-05-22T05:44:25.056Z,3148
2019-05-22T05:45:39.214Z,3176
2019-05-22T05:46:53.358Z,3520
2019-05-22T05:48:07.674Z,3708
2019-05-22T05:49:21.787Z,3980
2019-05-22T05:50:35.856Z,4144
2019-05-22T05:51:50.016Z,4280
2019-05-22T05:53:04.168Z,4472
2019-05-22T05:54:18.335Z,4512
2019-05-22T05:55:32.507Z,4764
2019-05-22T05:56:46.705Z,4920
2019-05-22T05:58:00.813Z,5108
2019-05-22T05:59:15.059Z,5296
2019-05-22T06:01:43.310Z,5656
2019-05-22T06:02:57.499Z,6188
2019-05-22T06:04:11.702Z,6636
2019-05-22T06:05:25.790Z,7488
2019-05-22T06:06:39.961Z,8576
2019-05-22T06:07:54.179Z,8680
2019-05-22T06:09:08.266Z,8828
2019-05-22T06:10:22.521Z,9188
2019-05-22T06:11:36.674Z,10228
2019-05-22T06:12:50.727Z,11260
2019-05-22T06:14:04.869Z,11628
2019-05-22T06:15:19.008Z,11188
2019-05-22T06:16:33.167Z,11444
2019-05-22T06:17:47.353Z,12436
2019-05-22T06:19:01.602Z,13192
2019-05-22T06:20:15.621Z,12048
2019-05-22T06:21:29.777Z,11116
2019-05-22T06:22:43.928Z,11360
2019-05-22T06:23:58.074Z,11600
2019-05-22T06:25:12.231Z,10984
2019-05-22T06:27:40.513Z,9744
2019-05-22T06:28:54.803Z,9068
2019-05-22T06:30:08.817Z,8492
2019-05-22T06:31:22.992Z,8560
2019-05-22T06:32:37.137Z,8524
2019-05-22T06:33:51.328Z,8224
2019-05-22T06:35:05.436Z,8860
2019-05-22T06:36:20.682Z,9504
2019-05-22T06:37:33.754Z,9648
2019-05-22T06:38:47.950Z,9500
2019-05-22T06:40:02.063Z,9396
2019-05-22T06:41:16.315Z,8764
2019-05-22T06:42:30.396Z,8908
2019-05-22T06:43:44.517Z,9368
2019-05-22T06:44:58.682Z,9944
2019-05-22T06:46:12.831Z,9344
2019-05-22T06:47:27.063Z,7480
2019-05-22T06:48:41.153Z,6724
2019-05-22T06:49:55.294Z,6260
2019-05-22T06:51:09.464Z,6336
2019-05-22T06:52:23.579Z,6132
2019-05-22T06:53:37.773Z,5876
2019-05-22T06:54:51.913Z,5948
2019-05-22T06:56:11.202Z,5744
2019-05-22T06:57:24.810Z,5776
2019-05-22T06:58:34.334Z,5696
2019-05-22T06:59:48.567Z,5724
2019-05-22T07:01:02.632Z,5628
2019-05-22T07:02:16.896Z,5488
2019-05-22T07:03:30.948Z,5536
2019-05-22T07:04:45.093Z,5140
2019-05-22T07:05:59.250Z,5324
2019-05-22T07:07:13.387Z,5864
2019-05-22T07:08:27.544Z,5944
2019-05-22T07:09:41.705Z,5884
2019-05-22T07:10:55.978Z,7216
2019-05-22T07:12:10.063Z,8064
2019-05-22T07:13:24.179Z,7864
2019-05-22T07:14:39.127Z,7172
2019-05-22T07:15:52.533Z,6624
2019-05-22T07:17:06.663Z,7520
2019-05-22T07:18:20.932Z,8368
2019-05-22T07:19:34.995Z,8744
2019-05-22T07:20:49.180Z,8412
2019-05-22T07:22:03.318Z,8808
2019-05-22T07:23:17.463Z,9304
2019-05-22T07:24:31.648Z,9948
2019-05-22T07:25:45.804Z,10344
2019-05-22T07:26:59.962Z,10336
2019-05-22T07:28:14.136Z,10616
2019-05-22T07:29:28.398Z,10628
2019-05-22T07:30:42.452Z,9872
2019-05-22T07:31:56.612Z,9724
2019-05-22T07:33:10.780Z,9884
2019-05-22T07:34:24.943Z,10232
2019-05-22T07:35:39.145Z,10496
2019-05-22T07:36:53.260Z,10348
2019-05-22T07:38:07.420Z,10284
2019-05-22T07:39:21.589Z,10420
2019-05-22T07:40:35.772Z,10504
2019-05-22T07:41:49.894Z,10332
2019-05-22T07:43:04.136Z,10416
2019-05-22T07:45:32.370Z,10304
2019-05-22T07:48:00.687Z,10992
2019-05-22T07:49:14.809Z,11228
2019-05-22T07:50:28.975Z,11276
2019-05-22T07:51:43.141Z,10988
2019-05-22T07:52:57.258Z,10688
2019-05-22T07:54:11.406Z,10388
2019-05-22T07:55:25.599Z,10100
2019-05-22T07:56:39.725Z,10000
2019-05-22T07:57:53.863Z,10008
2019-05-22T07:59:07.998Z,11208
2019-05-22T08:00:22.171Z,12612
2019-05-22T08:01:36.273Z,13036
2019-05-22T08:04:04.558Z,13288
2019-05-22T08:05:18.714Z,13864
2019-05-22T08:06:32.854Z,14588
2019-05-22T08:07:47.505Z,15928
2019-05-22T08:09:01.191Z,18208
2019-05-22T08:10:15.304Z,19488
2019-05-22T08:11:29.451Z,20096
2019-05-22T08:12:43.575Z,20320
2019-05-22T08:13:57.715Z,20448
2019-05-22T08:15:11.921Z,20832
2019-05-22T08:16:25.971Z,21120
2019-05-22T08:17:40.114Z,21888
2019-05-22T08:18:54.240Z,22592
2019-05-22T08:20:08.377Z,20736
2019-05-22T08:21:22.548Z,18592
2019-05-22T08:22:36.706Z,17888
2019-05-22T08:23:50.778Z,17280
2019-05-22T08:25:04.905Z,16576
2019-05-22T08:26:19.084Z,16288
2019-05-22T08:27:33.188Z,15484
2019-05-22T08:28:47.376Z,15164
2019-05-22T08:30:01.461Z,15876
2019-05-22T08:31:15.703Z,15852
2019-05-22T08:32:29.721Z,16564
2019-05-22T08:33:43.969Z,17248
2019-05-22T08:34:57.990Z,17008
2019-05-22T08:36:12.142Z,16792
2019-05-22T08:37:26.275Z,16024
2019-05-22T08:38:40.405Z,15544
2019-05-22T08:41:08.675Z,14420
2019-05-22T08:42:22.794Z,13796
2019-05-22T08:43:36.926Z,13636
2019-05-22T08:44:51.158Z,13260
2019-05-22T08:46:05.430Z,12384
2019-05-22T08:47:19.380Z,11880
2019-05-22T08:48:33.474Z,11616
2019-05-22T08:49:47.731Z,11324
2019-05-22T09:02:08.961Z,20736
2019-05-22T09:03:23.113Z,21536
2019-05-22T09:04:37.281Z,20192
2019-05-22T09:05:51.494Z,18048
2019-05-22T09:07:05.545Z,16640
2019-05-22T09:08:19.621Z,17920
2019-05-22T09:09:33.759Z,18912
2019-05-22T09:10:47.929Z,18400
2019-05-22T09:12:02.029Z,17152
2019-05-22T09:13:16.275Z,17472
2019-05-22T09:14:30.319Z,18432
2019-05-22T09:15:44.442Z,19168
2019-05-22T09:16:58.579Z,18784
2019-05-22T09:18:12.718Z,17408
2019-05-22T09:19:26.856Z,16800
2019-05-22T09:20:41.057Z,17056
2019-05-22T09:21:55.099Z,17696
2019-05-22T09:23:09.232Z,18816
2019-05-22T09:24:23.363Z,20096
2019-05-22T09:25:37.597Z,20704
2019-05-22T09:26:51.607Z,21472
2019-05-22T09:28:06.238Z,22528
2019-05-22T09:29:20.690Z,24096
2019-05-22T09:30:33.981Z,25472
2019-05-22T09:31:48.116Z,26272
2019-05-22T09:33:02.252Z,26208
2019-05-22T09:34:16.346Z,25248
2019-05-22T09:35:30.463Z,25984
2019-05-22T09:36:44.588Z,27904
2019-05-22T09:37:58.698Z,29600
2019-05-22T09:39:12.881Z,30656
2019-05-22T09:40:26.939Z,31328
2019-05-22T09:41:41.053Z,31040
2019-05-22T09:42:55.238Z,31584
2019-05-22T09:44:09.365Z,32288
2019-05-22T09:45:23.462Z,33280
2019-05-22T09:46:37.485Z,33024
2019-05-22T09:47:51.596Z,32512
2019-05-22T09:49:05.726Z,32736
2019-05-22T09:51:33.931Z,29152
2019-05-22T09:52:48.063Z,28416
2019-05-22T09:55:16.252Z,38176
2019-05-22T09:56:30.374Z,43008
2019-05-22T09:57:44.485Z,44960
2019-05-22T09:58:58.664Z,44512
2019-05-22T10:00:12.705Z,42688
2019-05-22T10:01:26.811Z,41216
2019-05-22T10:02:41.099Z,44512
2019-05-22T10:03:55.012Z,44320
2019-05-22T10:05:09.145Z,46880
2019-05-22T10:06:23.222Z,45056
2019-05-22T10:07:37.368Z,44128
2019-05-22T10:08:51.465Z,44672
2019-05-22T10:10:05.623Z,51520
2019-05-22T10:11:19.562Z,54944
2019-05-22T10:12:33.642Z,42656
2019-05-22T10:13:47.721Z,52480
2019-05-22T10:15:01.831Z,42752
2019-05-22T10:16:15.879Z,67008
2019-05-22T10:17:30.048Z,43424
2019-05-22T10:18:44.129Z,46688
2019-05-22T10:19:58.098Z,61824
2019-05-22T10:21:12.176Z,45856
2019-05-22T10:22:26.253Z,51648
2019-05-22T10:24:54.412Z,37024
2019-05-22T10:26:08.483Z,33952
2019-05-22T10:27:22.555Z,32064
2019-05-22T10:28:36.720Z,27584
2019-05-22T10:29:50.730Z,23456
2019-05-22T10:31:06.603Z,23392
2019-05-22T10:32:18.926Z,26272
2019-05-22T10:33:33.013Z,29824
2019-05-22T10:34:47.223Z,39040
2019-05-22T10:36:01.192Z,33472
2019-05-22T10:37:15.282Z,28384
2019-05-22T10:38:29.396Z,25728
2019-05-22T10:39:43.560Z,26048
2019-05-22T10:40:57.594Z,58592
2019-05-22T10:42:11.677Z,114208
2019-05-22T10:43:25.742Z,111616
2019-05-22T10:44:39.784Z,107744
2019-05-22T10:45:53.960Z,110080
2019-05-22T10:47:07.875Z,106848
2019-05-22T10:48:21.936Z,100544
2019-05-22T10:49:36.047Z,117952
2019-05-22T10:50:50.065Z,44320
2019-05-22T10:52:04.019Z,119456
2019-05-22T10:53:18.074Z,112736
2019-05-22T10:54:32.100Z,91808
2019-05-22T10:55:46.093Z,38688
2019-05-22T10:58:14.241Z,47264
2019-05-22T10:59:28.208Z,27328
2019-05-22T11:00:42.247Z,75840
2019-05-22T11:03:10.289Z,108736
2019-05-22T11:04:24.325Z,115616
2019-05-22T11:05:38.344Z,117760
2019-05-22T11:06:52.527Z,27392
2019-05-22T11:09:20.444Z,99104
2019-05-22T11:10:34.497Z,133440
2019-05-22T11:11:48.545Z,86272
2019-05-22T11:13:02.585Z,119456
2019-05-22T11:14:21.180Z,123424
2019-05-22T11:16:44.773Z,61504
2019-05-22T11:17:58.735Z,109184
2019-05-22T11:19:12.773Z,119104
2019-05-22T11:20:26.814Z,86272
2019-05-22T11:21:40.873Z,88512
2019-05-22T11:22:54.885Z,46976
2019-05-22T11:24:08.909Z,118624
2019-05-22T11:25:22.949Z,125024
2019-05-22T11:26:36.971Z,109568
2019-05-22T11:27:51.072Z,47296
2019-05-22T11:29:05.049Z,70368
2019-05-22T11:30:19.088Z,46432
2019-05-22T11:31:33.258Z,42336
2019-05-22T11:32:47.212Z,106368
2019-05-22T11:34:01.313Z,125728
2019-05-22T11:35:15.338Z,121472
2019-05-22T11:36:29.355Z,117696
2019-05-22T11:38:57.466Z,127488
2019-05-22T11:40:11.495Z,52544
2019-05-22T11:41:25.509Z,52928
2019-05-22T11:42:39.593Z,128896
2019-05-22T11:45:07.598Z,130080
2019-05-22T11:46:21.710Z,121280
2019-05-22T11:47:35.646Z,121152
2019-05-22T11:48:49.784Z,115328
2019-05-22T11:50:03.778Z,116896
2019-05-22T11:51:17.724Z,119776
2019-05-22T11:52:31.769Z,112960
2019-05-22T11:54:59.801Z,132608
2019-05-22T11:56:13.812Z,45728
2019-05-22T11:57:27.840Z,98176
2019-05-22T11:59:55.927Z,29632
2019-05-22T12:01:09.983Z,129568
2019-05-22T12:02:24.031Z,141760
2019-05-22T12:03:38.097Z,29632
2019-05-22T12:04:52.189Z,30592
2019-05-22T12:06:06.216Z,37504
2019-05-22T12:07:20.270Z,28736
2019-05-22T12:08:34.367Z,137184
2019-05-22T12:09:48.424Z,144256
2019-05-22T12:11:02.518Z,31872
2019-05-22T12:12:16.554Z,33920
2019-05-22T12:13:30.713Z,29952
2019-05-22T12:14:44.868Z,33312
2019-05-22T12:15:58.834Z,134560
2019-05-22T12:17:12.872Z,54112
2019-05-22T12:18:26.981Z,33760
2019-05-22T12:19:41.001Z,88288
2019-05-22T12:20:55.089Z,38592
2019-05-22T12:22:09.233Z,53088
2019-05-22T12:23:23.256Z,36640
2019-05-22T12:24:37.399Z,121312
2019-05-22T12:25:51.389Z,23264
2019-05-22T12:27:05.451Z,124608
2019-05-22T12:28:19.635Z,124544
2019-05-22T12:29:33.996Z,130208
2019-05-22T12:30:47.674Z,126368
2019-05-22T12:32:01.708Z,129152
2019-05-22T12:33:15.865Z,117184
2019-05-22T12:34:29.818Z,109504
2019-05-22T12:35:43.891Z,122080
2019-05-22T12:36:57.950Z,125344
2019-05-22T12:38:11.934Z,131648
2019-05-22T12:39:25.974Z,48352
2019-05-22T12:40:40.048Z,28768
2019-05-22T12:41:54.118Z,22784
2019-05-22T12:43:08.272Z,23616
2019-05-22T12:44:22.215Z,128672
2019-05-22T12:45:36.293Z,36384
2019-05-22T12:46:50.624Z,128096
2019-05-22T12:48:04.395Z,119136
2019-05-22T12:51:46.544Z,38464
2019-05-22T12:53:00.610Z,67072
2019-05-22T12:54:14.631Z,55360
2019-05-22T12:55:28.692Z,31936
2019-05-22T12:56:42.745Z,25056
2019-05-22T12:57:56.809Z,24640
2019-05-22T12:59:10.899Z,29184
2019-05-22T13:00:25.022Z,31392
2019-05-22T13:01:39.043Z,26912
2019-05-22T13:02:53.142Z,31008
2019-05-22T13:04:07.247Z,134560
2019-05-22T13:05:21.393Z,36640
2019-05-22T13:07:49.502Z,26176
2019-05-22T13:09:03.630Z,21568
2019-05-22T13:10:17.664Z,21472
2019-05-22T13:11:31.803Z,28320
2019-05-22T13:12:45.885Z,131648
2019-05-22T13:13:59.975Z,25792
2019-05-22T13:15:14.091Z,22080
2019-05-22T13:16:28.184Z,21280
2019-05-22T13:17:42.343Z,21056
2019-05-22T13:18:56.362Z,21504
2019-05-22T13:20:10.473Z,22048
2019-05-22T13:21:24.567Z,21056
2019-05-22T13:22:38.679Z,22240
2019-05-22T13:23:52.852Z,28576
2019-05-22T13:25:09.580Z,21632
2019-05-22T13:26:23.347Z,22656
2019-05-22T13:27:37.424Z,100992
2019-05-22T13:30:03.367Z,126496
2019-05-22T13:31:17.425Z,125600
2019-05-22T13:32:31.524Z,123232
2019-05-22T13:33:45.608Z,122496
2019-05-22T13:34:59.699Z,125312
2019-05-22T13:36:13.747Z,119456
2019-05-22T13:37:27.790Z,20096
2019-05-22T13:38:41.912Z,21184
2019-05-22T13:39:55.949Z,24896
2019-05-22T13:41:10.020Z,125536
2019-05-22T13:42:24.117Z,125728
2019-05-22T13:43:38.174Z,120192
2019-05-22T13:44:52.271Z,126400
2019-05-22T13:46:06.353Z,22272
2019-05-22T13:47:20.405Z,23808
2019-05-22T13:48:34.604Z,45312
2019-05-22T13:49:48.555Z,27200
2019-05-22T13:51:02.722Z,25568
2019-05-22T13:52:16.769Z,30464
2019-05-22T13:53:30.827Z,28864
2019-05-22T13:54:45.007Z,25792
2019-05-22T13:55:59.033Z,24672
2019-05-22T13:57:13.126Z,26912
2019-05-22T13:58:27.283Z,80928
2019-05-22T13:59:41.519Z,125056
2019-05-22T14:00:55.815Z,121632
2019-05-22T14:02:09.606Z,119392
2019-05-22T14:03:23.741Z,77408
2019-05-22T14:04:37.695Z,102016
2019-05-22T14:05:51.773Z,120384
2019-05-22T14:07:05.990Z,117056
2019-05-22T14:08:19.937Z,112960
2019-05-22T14:09:34.029Z,112704
2019-05-22T14:10:48.105Z,113472
2019-05-22T14:12:02.203Z,20512
2019-05-22T14:13:16.325Z,16420
2019-05-22T14:14:30.321Z,17628
2019-05-22T14:15:44.587Z,19680
2019-05-22T14:16:58.667Z,20480
2019-05-22T14:18:12.562Z,20224
2019-05-22T14:19:26.686Z,18528
2019-05-22T14:20:40.832Z,17036
2019-05-22T14:21:54.835Z,16288
2019-05-22T14:23:08.937Z,15940
2019-05-22T14:24:23.048Z,17444
2019-05-22T14:25:37.568Z,23040
2019-05-22T14:26:51.296Z,26688
2019-05-22T14:29:19.607Z,119328
2019-05-22T14:30:33.668Z,109184
2019-05-22T14:31:47.751Z,51008
2019-05-22T14:33:01.893Z,23296
2019-05-22T14:34:15.931Z,24736
2019-05-22T14:35:30.165Z,41920
2019-05-22T14:36:44.141Z,24032
2019-05-22T14:37:58.339Z,22368
2019-05-22T14:39:12.389Z,19872
2019-05-22T14:40:26.586Z,20960
2019-05-22T14:41:40.592Z,22592
2019-05-22T14:42:54.668Z,101408
2019-05-22T14:44:08.777Z,110816
2019-05-22T14:45:22.867Z,31232
2019-05-22T14:46:36.988Z,32064
2019-05-22T14:47:51.135Z,96160
2019-05-22T14:49:05.144Z,117664
2019-05-22T14:50:19.242Z,116256
2019-05-22T14:51:33.319Z,114528
2019-05-22T14:52:47.382Z,115968
2019-05-22T14:54:01.498Z,111776
2019-05-22T14:55:19.226Z,107104
2019-05-22T14:56:33.572Z,94240
2019-05-22T14:57:43.700Z,27744
2019-05-22T14:58:57.768Z,104832
2019-05-22T15:00:11.848Z,103904
2019-05-22T15:01:25.976Z,18228
2019-05-22T15:02:40.016Z,16256
2019-05-22T15:03:54.127Z,16284
2019-05-22T15:05:08.191Z,16920
2019-05-22T15:06:22.295Z,17856
2019-05-22T15:07:36.371Z,18720
2019-05-22T15:08:50.538Z,19680
2019-05-22T15:10:04.552Z,20064
2019-05-22T15:11:18.658Z,20864
2019-05-22T15:12:32.759Z,21472
2019-05-22T15:13:46.884Z,21888
2019-05-22T15:15:00.976Z,22592
2019-05-22T15:16:15.089Z,24672
2019-05-22T15:17:29.217Z,24224
2019-05-22T15:18:43.304Z,23808
2019-05-22T15:19:57.585Z,23104
2019-05-22T15:21:15.302Z,22400
2019-05-22T15:22:30.818Z,95168
2019-05-22T15:23:39.782Z,59168
2019-05-22T15:24:53.879Z,92032
2019-05-22T15:26:08.068Z,91168
2019-05-22T15:27:22.195Z,95040
2019-05-22T15:28:36.216Z,80960
2019-05-22T15:29:50.413Z,25664
2019-05-22T15:31:04.459Z,26720
2019-05-22T15:32:18.547Z,25536
2019-05-22T15:33:32.542Z,44448
2019-05-22T15:34:46.644Z,38944
2019-05-22T15:36:00.727Z,67840
2019-05-22T15:37:14.807Z,85696
2019-05-22T15:38:28.911Z,83136
2019-05-22T15:39:42.997Z,83296
2019-05-22T15:42:11.153Z,70624
2019-05-22T15:43:25.332Z,21664
2019-05-22T15:44:39.296Z,41568
2019-05-22T15:45:53.386Z,15520
2019-05-22T15:47:08.333Z,16012
2019-05-22T15:48:21.621Z,15568
2019-05-22T15:49:35.626Z,20480
2019-05-22T15:50:49.717Z,80512
2019-05-22T15:52:03.805Z,65888
2019-05-22T15:53:18.178Z,79584
2019-05-22T15:54:32.027Z,78848
2019-05-22T15:55:46.093Z,74112
2019-05-22T15:58:14.255Z,37216
2019-05-22T15:59:28.340Z,75680
2019-05-22T16:00:42.446Z,75808
2019-05-22T16:01:56.508Z,74336
2019-05-22T16:03:10.575Z,69216
2019-05-22T16:04:24.657Z,70176
2019-05-22T16:05:38.724Z,74080
2019-05-22T16:06:52.922Z,73504
2019-05-22T16:08:06.882Z,70592
2019-05-22T16:09:21.040Z,67776
2019-05-22T16:10:35.043Z,68160
2019-05-22T16:11:49.126Z,69312
2019-05-22T16:13:03.193Z,68736
2019-05-22T16:14:17.271Z,68800
2019-05-22T16:15:31.333Z,67264
2019-05-22T16:16:45.512Z,63904
2019-05-22T16:17:59.525Z,59456
2019-05-22T16:19:13.555Z,57952
2019-05-22T16:20:27.723Z,52224
2019-05-22T16:21:41.781Z,40128
2019-05-22T16:22:55.820Z,30496
2019-05-22T16:24:09.956Z,27040
2019-05-22T16:25:23.924Z,22336
2019-05-22T16:26:38.080Z,26944
2019-05-22T16:27:52.206Z,27712
2019-05-22T16:29:06.245Z,28064
2019-05-22T16:30:20.327Z,27680
2019-05-22T16:31:34.326Z,26720
2019-05-22T16:32:48.399Z,26112
2019-05-22T16:34:02.467Z,25312
2019-05-22T16:35:16.564Z,25024
2019-05-22T16:36:30.735Z,24864
2019-05-22T16:37:44.735Z,24928
2019-05-22T16:38:58.804Z,24960
2019-05-22T16:40:12.896Z,24896
2019-05-22T16:41:27.058Z,24992
2019-05-22T16:42:41.230Z,24640
2019-05-22T16:43:55.183Z,24128
2019-05-22T16:45:09.253Z,23904
2019-05-22T16:46:23.345Z,24064
2019-05-22T16:47:37.428Z,23936
2019-05-22T16:50:05.603Z,26912
2019-05-22T16:51:19.691Z,29504
2019-05-22T16:52:33.772Z,33760
2019-05-22T16:53:47.842Z,18432
2019-05-22T16:55:01.982Z,49152
2019-05-22T16:56:16.481Z,14436
2019-05-22T16:57:30.248Z,15152
2019-05-22T16:58:44.226Z,14636
2019-05-22T16:59:58.314Z,19328
2019-05-22T17:01:15.203Z,18048
2019-05-22T17:02:29.217Z,38176
2019-05-22T17:03:43.576Z,39968
2019-05-22T17:04:56.914Z,42752
2019-05-22T17:06:08.854Z,37952
2019-05-22T17:07:22.948Z,37472
2019-05-22T17:08:37.109Z,36384
2019-05-22T17:09:51.475Z,33216
2019-05-22T17:11:05.223Z,35520
2019-05-22T17:12:19.340Z,18496
2019-05-22T17:13:34.278Z,15280
2019-05-22T17:14:47.523Z,14252
2019-05-22T17:16:01.687Z,16084
2019-05-22T17:17:15.707Z,25184
2019-05-22T17:18:29.807Z,31136
2019-05-22T17:19:43.892Z,34976
2019-05-22T17:20:58.006Z,31456
2019-05-22T17:22:12.132Z,29344
2019-05-22T17:23:26.276Z,29120
2019-05-22T17:24:40.335Z,27872
2019-05-22T17:25:54.555Z,25632
2019-05-22T17:27:08.522Z,27424
2019-05-22T17:28:22.694Z,21472
2019-05-22T17:29:36.711Z,27808